Time;durP1;ratioP1;P1;durP2;ratioP2;P2;SDS_P1;SDS_P2;PMS_P1;PMS_P2;Temp;Humidity;BMP_temperature;BMP_pressure;BME280_temperature;BME280_humidity;BME280_pressure;Samples;Min_cycle;Max_cycle;Signal;HPM_P1;HPM_P2
2021/03/18 00:00:58;;;;;;;7.00;5.97;;;;;;;;;;5010014;28;20182;-69
2021/03/18 00:03:28;;;;;;;8.53;6.40;;;;;;;;;;5016460;28;20210;-69
2021/03/18 00:05:54;;;;;;;7.43;6.43;;;;;;;;;;5014568;28;20213;-69
2021/03/18 00:08:21;;;;;;;7.07;6.37;;;;;;;;;;5021824;28;20544;-69
2021/03/18 00:10:47;;;;;;;7.10;6.47;;;;;;;;;;5013592;28;20258;-69
2021/03/18 00:13:14;;;;;;;7.10;6.43;;;;;;;;;;4997214;28;20191;-69
2021/03/18 00:15:40;;;;;;;7.67;6.50;;;;;;;;;;4994352;28;20223;-69
2021/03/18 00:18:07;;;;;;;7.47;6.07;;;;;;;;;;5014905;28;20683;-69
2021/03/18 00:20:33;;;;;;;8.10;6.27;;;;;;;;;;5016666;28;20181;-69
2021/03/18 00:22:59;;;;;;;6.90;6.20;;;;;;;;;;5016527;28;20287;-69
2021/03/18 00:25:25;;;;;;;6.93;6.23;;;;;;;;;;5016516;28;20272;-69
2021/03/18 00:27:51;;;;;;;6.73;5.50;;;;;;;;;;5014475;28;20185;-68
2021/03/18 00:30:18;;;;;;;9.50;6.90;;;;;;;;;;5017289;28;20267;-69
2021/03/18 00:32:44;;;;;;;8.70;6.70;;;;;;;;;;4998836;28;20268;-69
2021/03/18 00:35:11;;;;;;;7.33;5.67;;;;;;;;;;5005857;28;20281;-69
2021/03/18 00:37:38;;;;;;;7.47;6.37;;;;;;;;;;5016060;28;20185;-69
2021/03/18 00:40:12;;;;;;;7.23;6.47;;;;;;;;;;4995529;28;20232;-69
2021/03/18 00:42:48;;;;;;;6.57;5.83;;;;;;;;;;5015410;28;20300;-69
2021/03/18 00:45:15;;;;;;;7.60;5.93;;;;;;;;;;4995911;28;20240;-69
2021/03/18 00:47:41;;;;;;;8.07;6.37;;;;;;;;;;5008995;28;20185;-68
2021/03/18 00:50:07;;;;;;;16.63;6.67;;;;;;;;;;5014505;28;20245;-69
2021/03/18 00:52:33;;;;;;;7.10;6.27;;;;;;;;;;5011891;28;20216;-69
2021/03/18 00:54:59;;;;;;;8.03;6.90;;;;;;;;;;5013100;28;20216;-69
2021/03/18 00:57:25;;;;;;;9.13;6.97;;;;;;;;;;5015655;28;20545;-69
2021/03/18 00:59:51;;;;;;;8.30;6.43;;;;;;;;;;5011475;28;20265;-69
2021/03/18 01:02:18;;;;;;;8.60;6.67;;;;;;;;;;4992292;28;20217;-69
2021/03/18 01:04:46;;;;;;;11.37;6.87;;;;;;;;;;4997140;28;20242;-69
2021/03/18 01:07:11;;;;;;;7.90;6.83;;;;;;;;;;5011164;28;20243;-69
2021/03/18 01:09:37;;;;;;;7.83;7.03;;;;;;;;;;5013697;28;20197;-69
2021/03/18 01:12:04;;;;;;;7.70;6.90;;;;;;;;;;5012255;28;20290;-69
2021/03/18 01:14:30;;;;;;;8.43;7.20;;;;;;;;;;5014341;28;20694;-69
2021/03/18 01:16:57;;;;;;;7.57;6.73;;;;;;;;;;5011790;28;20194;-69
2021/03/18 01:19:23;;;;;;;10.33;6.67;;;;;;;;;;5014166;28;20187;-69
2021/03/18 01:21:50;;;;;;;7.57;6.83;;;;;;;;;;5017274;28;20232;-69
2021/03/18 01:24:16;;;;;;;8.90;7.07;;;;;;;;;;4997913;28;20186;-70
2021/03/18 01:26:44;;;;;;;9.63;6.83;;;;;;;;;;4992878;28;20335;-69
2021/03/18 01:29:10;;;;;;;8.27;7.40;;;;;;;;;;5013727;28;20189;-69
2021/03/18 01:31:36;;;;;;;10.37;6.67;;;;;;;;;;4992592;28;20209;-69
2021/03/18 01:34:03;;;;;;;8.03;6.67;;;;;;;;;;5012069;28;20218;-69
2021/03/18 01:36:29;;;;;;;8.37;6.40;;;;;;;;;;4996171;28;20225;-69
2021/03/18 01:38:55;;;;;;;10.60;7.07;;;;;;;;;;5011321;28;20197;-69
2021/03/18 01:41:22;;;;;;;9.97;6.80;;;;;;;;;;5014827;28;20205;-69
2021/03/18 01:43:48;;;;;;;8.93;7.03;;;;;;;;;;5014904;28;20312;-69
2021/03/18 01:46:14;;;;;;;12.10;6.83;;;;;;;;;;5012025;28;20230;-69
2021/03/18 01:48:41;;;;;;;9.07;7.07;;;;;;;;;;5015178;28;20186;-69
2021/03/18 01:51:07;;;;;;;9.00;7.93;;;;;;;;;;5012573;28;20233;-69
2021/03/18 01:53:34;;;;;;;8.77;7.13;;;;;;;;;;5017402;28;20182;-69
2021/03/18 01:56:01;;;;;;;8.23;7.37;;;;;;;;;;4991192;28;20212;-69
2021/03/18 01:58:27;;;;;;;7.47;6.77;;;;;;;;;;5013943;28;20221;-69
2021/03/18 02:00:55;;;;;;;8.80;6.90;;;;;;;;;;5007458;28;20212;-69
2021/03/18 02:03:21;;;;;;;8.57;6.57;;;;;;;;;;5013650;28;20178;-69
2021/03/18 02:05:48;;;;;;;8.73;7.17;;;;;;;;;;4995270;28;20899;-69
2021/03/18 02:08:15;;;;;;;7.93;6.87;;;;;;;;;;5009208;28;20202;-68
2021/03/18 02:10:41;;;;;;;9.70;6.30;;;;;;;;;;4996653;28;20264;-69
2021/03/18 02:13:08;;;;;;;9.17;6.27;;;;;;;;;;5016315;28;20904;-69
2021/03/18 02:15:36;;;;;;;7.40;6.10;;;;;;;;;;4989493;28;20224;-69
2021/03/18 02:18:05;;;;;;;9.90;6.57;;;;;;;;;;5015880;28;20185;-69
2021/03/18 02:20:31;;;;;;;9.97;6.77;;;;;;;;;;4996677;28;20231;-69
2021/03/18 02:23:15;;;;;;;8.00;6.83;;;;;;;;;;5014112;28;20215;-68
2021/03/18 02:25:51;;;;;;;7.33;6.23;;;;;;;;;;5003613;28;20185;-69
2021/03/18 02:28:17;;;;;;;8.63;6.10;;;;;;;;;;5015753;28;20574;-69
2021/03/18 02:30:45;;;;;;;7.40;6.00;;;;;;;;;;4993453;28;20186;-69
2021/03/18 02:33:27;;;;;;;7.97;6.37;;;;;;;;;;5012138;28;20654;-69
2021/03/18 02:35:57;;;;;;;8.10;6.40;;;;;;;;;;5010362;28;20715;-69
2021/03/18 02:38:28;;;;;;;7.97;6.73;;;;;;;;;;4993742;28;20182;-69
2021/03/18 02:41:03;;;;;;;6.77;6.07;;;;;;;;;;5015046;28;20187;-69
2021/03/18 02:43:31;;;;;;;8.43;6.57;;;;;;;;;;5009431;28;20183;-69
2021/03/18 02:45:59;;;;;;;8.63;6.40;;;;;;;;;;5011039;28;20197;-69
2021/03/18 02:48:32;;;;;;;8.43;6.20;;;;;;;;;;4996906;28;20189;-69
2021/03/18 02:50:59;;;;;;;13.60;6.27;;;;;;;;;;5008287;28;20244;-69
2021/03/18 02:53:25;;;;;;;8.77;6.73;;;;;;;;;;4986033;28;20201;-69
2021/03/18 02:55:52;;;;;;;9.00;7.00;;;;;;;;;;5012641;28;20254;-69
2021/03/18 02:58:29;;;;;;;10.27;6.80;;;;;;;;;;5009064;28;20208;-69
2021/03/18 03:00:57;;;;;;;8.43;6.97;;;;;;;;;;4991932;28;20210;-69
2021/03/18 03:03:23;;;;;;;7.50;6.13;;;;;;;;;;5012170;28;20190;-69
2021/03/18 03:05:51;;;;;;;8.13;5.97;;;;;;;;;;5014737;28;20195;-69
2021/03/18 03:08:18;;;;;;;7.70;6.20;;;;;;;;;;5013457;28;20217;-70
2021/03/18 03:10:44;;;;;;;8.87;6.67;;;;;;;;;;5014406;28;20203;-69
2021/03/18 03:13:11;;;;;;;6.60;5.90;;;;;;;;;;4988718;28;20213;-69
2021/03/18 03:15:38;;;;;;;10.60;6.43;;;;;;;;;;5013671;28;20209;-69
2021/03/18 03:18:07;;;;;;;7.00;5.20;;;;;;;;;;5012355;28;20564;-69
2021/03/18 03:20:33;;;;;;;10.20;6.17;;;;;;;;;;5013801;28;20665;-69
2021/03/18 03:23:01;;;;;;;7.77;5.53;;;;;;;;;;5013431;28;20204;-69
2021/03/18 03:25:27;;;;;;;9.33;5.73;;;;;;;;;;4990047;28;20199;-69
2021/03/18 03:27:53;;;;;;;7.40;5.63;;;;;;;;;;5011753;28;20676;-69
2021/03/18 03:30:20;;;;;;;7.93;5.73;;;;;;;;;;4989554;28;20191;-68
2021/03/18 03:32:46;;;;;;;6.10;5.40;;;;;;;;;;5007043;28;20201;-69
2021/03/18 03:35:13;;;;;;;9.17;6.00;;;;;;;;;;5006897;28;20264;-69
2021/03/18 03:37:40;;;;;;;6.80;5.57;;;;;;;;;;4991989;28;20193;-69
2021/03/18 03:40:07;;;;;;;6.47;5.87;;;;;;;;;;4993202;28;20183;-69
2021/03/18 03:42:33;;;;;;;13.13;6.20;;;;;;;;;;5010560;28;20208;-69
2021/03/18 03:44:59;;;;;;;6.63;5.50;;;;;;;;;;5013362;28;20192;-69
2021/03/18 03:47:26;;;;;;;6.33;5.73;;;;;;;;;;5012782;28;20202;-69
2021/03/18 03:49:53;;;;;;;7.23;5.77;;;;;;;;;;4995867;28;20197;-69
2021/03/18 03:52:28;;;;;;;9.87;6.50;;;;;;;;;;5013677;28;20224;-69
2021/03/18 03:54:59;;;;;;;9.23;6.47;;;;;;;;;;4994262;28;20587;-69
2021/03/18 03:57:32;;;;;;;9.70;6.53;;;;;;;;;;5012815;28;20210;-68
2021/03/18 04:00:00;;;;;;;7.07;5.17;;;;;;;;;;4995508;28;20194;-69
2021/03/18 04:02:27;;;;;;;6.27;5.63;;;;;;;;;;4994335;28;20342;-69
2021/03/18 04:04:53;;;;;;;8.40;6.77;;;;;;;;;;5012418;28;20757;-69
2021/03/18 04:07:29;;;;;;;6.83;6.23;;;;;;;;;;4989465;28;20214;-69
2021/03/18 04:09:56;;;;;;;7.77;6.80;;;;;;;;;;5011194;28;20205;-69
2021/03/18 04:12:24;;;;;;;8.20;6.50;;;;;;;;;;5014313;28;20218;-69
2021/03/18 04:14:55;;;;;;;8.50;6.33;;;;;;;;;;4992641;28;20200;-68
2021/03/18 04:17:21;;;;;;;6.57;5.73;;;;;;;;;;5008094;28;20184;-69
2021/03/18 04:19:49;;;;;;;10.23;6.27;;;;;;;;;;5015096;28;20216;-69
2021/03/18 04:22:16;;;;;;;6.87;6.10;;;;;;;;;;5005019;28;20215;-68
2021/03/18 04:24:43;;;;;;;6.27;5.67;;;;;;;;;;4993803;28;20658;-69
2021/03/18 04:27:09;;;;;;;8.50;5.87;;;;;;;;;;5012189;28;20197;-69
2021/03/18 04:29:38;;;;;;;6.50;5.83;;;;;;;;;;5001203;28;20220;-69
2021/03/18 04:32:04;;;;;;;8.03;5.70;;;;;;;;;;5014276;28;20261;-69
2021/03/18 04:34:31;;;;;;;7.23;5.37;;;;;;;;;;4995335;28;22130;-69
2021/03/18 04:36:57;;;;;;;9.10;6.17;;;;;;;;;;5014695;28;20529;-69
2021/03/18 04:39:24;;;;;;;7.60;5.83;;;;;;;;;;5001143;28;20254;-69
2021/03/18 04:41:50;;;;;;;8.10;5.37;;;;;;;;;;5013016;28;20200;-70
2021/03/18 04:44:17;;;;;;;6.90;5.70;;;;;;;;;;5013501;28;20198;-69
2021/03/18 04:46:45;;;;;;;10.10;6.47;;;;;;;;;;5010333;28;20189;-68
2021/03/18 04:49:11;;;;;;;10.20;6.87;;;;;;;;;;5014733;28;20230;-69
2021/03/18 04:51:37;;;;;;;7.50;6.83;;;;;;;;;;5006596;28;20206;-68
2021/03/18 04:54:04;;;;;;;8.20;6.40;;;;;;;;;;5011089;28;20189;-69
2021/03/18 04:56:30;;;;;;;8.27;6.17;;;;;;;;;;5011667;28;20357;-69
2021/03/18 04:58:57;;;;;;;7.17;6.13;;;;;;;;;;5016749;28;20184;-69
2021/03/18 05:01:27;;;;;;;7.23;6.37;;;;;;;;;;5015339;28;20213;-69
2021/03/18 05:03:53;;;;;;;7.70;6.07;;;;;;;;;;5012620;28;20198;-69
2021/03/18 05:06:23;;;;;;;8.33;6.67;;;;;;;;;;4995001;28;20258;-69
2021/03/18 05:08:48;;;;;;;8.80;6.10;;;;;;;;;;5015648;28;20692;-69
2021/03/18 05:11:15;;;;;;;8.07;6.03;;;;;;;;;;5015801;28;20232;-69
2021/03/18 05:13:41;;;;;;;9.57;6.03;;;;;;;;;;5015816;28;20294;-69
2021/03/18 05:16:08;;;;;;;6.80;6.10;;;;;;;;;;5014190;28;20217;-69
2021/03/18 05:18:34;;;;;;;9.77;6.63;;;;;;;;;;5015016;28;20709;-69
2021/03/18 05:21:02;;;;;;;7.30;5.87;;;;;;;;;;5002365;28;20243;-69
2021/03/18 05:23:28;;;;;;;9.77;5.87;;;;;;;;;;5012015;28;20185;-68
2021/03/18 05:25:54;;;;;;;7.77;6.03;;;;;;;;;;5012235;28;20565;-69
2021/03/18 05:28:20;;;;;;;7.03;6.33;;;;;;;;;;5012685;28;20731;-69
2021/03/18 05:30:46;;;;;;;8.70;6.40;;;;;;;;;;4995774;28;20189;-69
2021/03/18 05:33:12;;;;;;;9.53;6.77;;;;;;;;;;5014539;28;20203;-69
2021/03/18 05:35:40;;;;;;;9.97;7.17;;;;;;;;;;5014343;28;20209;-69
2021/03/18 05:38:06;;;;;;;7.53;5.93;;;;;;;;;;5013897;28;20186;-69
2021/03/18 05:40:33;;;;;;;7.23;5.63;;;;;;;;;;5016231;28;20191;-68
2021/03/18 05:42:59;;;;;;;9.03;5.53;;;;;;;;;;5015761;28;20209;-69
2021/03/18 05:45:25;;;;;;;7.63;5.40;;;;;;;;;;5014160;28;20186;-69
2021/03/18 05:47:51;;;;;;;7.90;6.30;;;;;;;;;;5010507;28;20187;-69
2021/03/18 05:50:19;;;;;;;9.97;6.23;;;;;;;;;;5004304;28;20189;-69
2021/03/18 05:52:46;;;;;;;8.50;6.50;;;;;;;;;;4999746;28;20212;-69
2021/03/18 05:55:12;;;;;;;8.73;6.53;;;;;;;;;;5016445;28;20208;-69
2021/03/18 05:57:39;;;;;;;6.93;5.67;;;;;;;;;;5013028;28;20222;-69
2021/03/18 06:00:10;;;;;;;7.47;6.20;;;;;;;;;;5012823;28;20195;-69
2021/03/18 06:02:37;;;;;;;10.80;6.53;;;;;;;;;;5014277;28;20686;-69
2021/03/18 06:05:07;;;;;;;10.67;7.50;;;;;;;;;;5004757;28;20195;-69
2021/03/18 06:07:34;;;;;;;9.43;7.30;;;;;;;;;;5014185;28;20214;-69
2021/03/18 06:10:01;;;;;;;12.03;6.67;;;;;;;;;;5013197;28;20198;-69
2021/03/18 06:12:27;;;;;;;9.00;6.67;;;;;;;;;;5014414;28;20277;-68
2021/03/18 06:14:53;;;;;;;10.77;6.63;;;;;;;;;;5015251;28;20679;-69
2021/03/18 06:17:19;;;;;;;8.43;6.73;;;;;;;;;;5011445;28;20209;-69
2021/03/18 06:19:45;;;;;;;6.67;5.70;;;;;;;;;;5011317;28;20220;-69
2021/03/18 06:22:11;;;;;;;10.67;6.90;;;;;;;;;;5011728;28;20400;-69
2021/03/18 06:24:47;;;;;;;7.77;6.47;;;;;;;;;;5011212;28;20196;-69
2021/03/18 06:27:23;;;;;;;8.77;6.80;;;;;;;;;;5005041;28;20783;-69
2021/03/18 06:29:49;;;;;;;8.10;7.20;;;;;;;;;;5007596;28;20646;-69
2021/03/18 06:32:15;;;;;;;7.97;7.17;;;;;;;;;;4993402;28;20216;-69
2021/03/18 06:34:45;;;;;;;10.03;7.17;;;;;;;;;;4999478;28;20687;-69
2021/03/18 06:37:31;;;;;;;8.93;7.40;;;;;;;;;;5013340;28;20233;-69
2021/03/18 06:40:06;;;;;;;10.47;7.20;;;;;;;;;;5005496;28;20177;-69
2021/03/18 06:42:33;;;;;;;9.53;7.30;;;;;;;;;;5013001;28;20203;-69
2021/03/18 06:45:04;;;;;;;27.17;10.33;;;;;;;;;;5006118;28;20280;-69
2021/03/18 06:47:41;;;;;;;12.13;8.50;;;;;;;;;;5007701;28;20191;-69
2021/03/18 06:50:07;;;;;;;10.03;7.00;;;;;;;;;;5013399;28;20190;-70
2021/03/18 06:52:37;;;;;;;9.63;6.37;;;;;;;;;;5012412;28;20207;-70
2021/03/18 06:55:03;;;;;;;13.23;7.40;;;;;;;;;;4994358;28;20686;-69
2021/03/18 06:57:29;;;;;;;13.07;6.93;;;;;;;;;;4992131;28;20195;-69
2021/03/18 06:59:55;;;;;;;7.70;5.93;;;;;;;;;;5001747;28;20690;-69
2021/03/18 07:02:21;;;;;;;11.40;6.80;;;;;;;;;;5014068;28;20208;-70
2021/03/18 07:04:52;;;;;;;9.97;6.90;;;;;;;;;;5011653;28;20190;-69
2021/03/18 07:07:20;;;;;;;10.33;6.87;;;;;;;;;;5012145;28;20207;-69
2021/03/18 07:09:47;;;;;;;12.83;6.33;;;;;;;;;;4989419;28;20216;-68
2021/03/18 07:12:14;;;;;;;8.10;6.67;;;;;;;;;;5004335;28;20207;-69
2021/03/18 07:14:40;;;;;;;8.33;7.50;;;;;;;;;;5012328;28;20212;-69
2021/03/18 07:17:07;;;;;;;10.23;6.97;;;;;;;;;;4994709;28;20196;-69
2021/03/18 07:19:34;;;;;;;7.93;7.00;;;;;;;;;;5013906;28;20276;-70
2021/03/18 07:22:02;;;;;;;8.33;6.97;;;;;;;;;;5014400;28;20218;-71
2021/03/18 07:24:28;;;;;;;10.03;7.33;;;;;;;;;;5010282;28;20193;-70
2021/03/18 07:26:58;;;;;;;10.03;6.67;;;;;;;;;;5013834;28;20199;-71
2021/03/18 07:29:25;;;;;;;9.37;7.03;;;;;;;;;;5011601;28;20189;-69
2021/03/18 07:31:52;;;;;;;7.77;6.97;;;;;;;;;;4992810;28;20202;-70
2021/03/18 07:34:18;;;;;;;9.17;7.33;;;;;;;;;;5007393;28;20927;-70
2021/03/18 07:36:46;;;;;;;8.63;7.70;;;;;;;;;;4991959;28;20220;-70
2021/03/18 07:39:12;;;;;;;10.40;8.77;;;;;;;;;;5011175;28;20177;-70
2021/03/18 07:41:38;;;;;;;9.77;7.03;;;;;;;;;;5006191;28;20206;-69
2021/03/18 07:44:05;;;;;;;8.73;6.82;;;;;;;;;;5000315;28;20710;-70
2021/03/18 07:46:33;;;;;;;8.05;6.32;;;;;;;;;;5008870;28;20177;-70
2021/03/18 07:49:05;;;;;;;9.50;7.22;;;;;;;;;;4990983;28;20173;-69
2021/03/18 07:51:31;;;;;;;8.25;6.97;;;;;;;;;;4995997;28;20662;-70
2021/03/18 07:53:59;;;;;;;9.70;6.60;;;;;;;;;;5010628;28;20643;-70
2021/03/18 07:56:25;;;;;;;8.77;6.85;;;;;;;;;;5012828;28;20688;-70
2021/03/18 07:58:52;;;;;;;10.45;7.88;;;;;;;;;;5009493;28;20189;-71
2021/03/18 08:01:30;;;;;;;8.13;7.35;;;;;;;;;;5008685;28;20768;-69
2021/03/18 08:03:57;;;;;;;8.43;6.80;;;;;;;;;;4995571;28;20681;-69
2021/03/18 08:06:42;;;;;;;8.30;7.18;;;;;;;;;;5018194;28;20206;-72
2021/03/18 08:09:37;;;;;;;7.85;6.50;;;;;;;;;;5012447;28;20195;-69
2021/03/18 08:12:03;;;;;;;7.60;6.88;;;;;;;;;;4990327;28;20324;-69
2021/03/18 08:14:29;;;;;;;6.40;5.82;;;;;;;;;;5010888;28;20212;-68
2021/03/18 08:16:55;;;;;;;9.10;6.60;;;;;;;;;;5012586;28;20204;-71
2021/03/18 08:19:22;;;;;;;6.68;5.93;;;24.60;36.30;;;;;;5009308;28;20188;-70
2021/03/18 08:21:49;;;;;;;7.22;6.28;;;;;;;;;;5015082;28;20201;-71
2021/03/18 08:24:15;;;;;;;6.95;6.35;;;;;;;;;;5021021;28;20268;-70
2021/03/18 08:26:48;;;;;;;8.18;5.72;;;;;;;;;;5015672;28;20830;-70
2021/03/18 08:29:16;;;;;;;6.88;5.55;;;;;;;;;;5006126;28;20204;-70
2021/03/18 08:31:47;;;;;;;9.07;6.45;;;;;;;;;;5025141;28;20275;-71
2021/03/18 08:34:14;;;;;;;7.07;6.15;;;;;;;;;;5000960;28;20207;-70
2021/03/18 08:36:45;;;;;;;7.28;6.57;;;;;;;;;;5012991;28;20209;-70
2021/03/18 08:39:13;;;;;;;7.95;6.18;;;;;;;;;;5000811;28;20188;-71
2021/03/18 08:41:47;;;;;;;7.82;6.10;;;20.40;43.40;;;;;;5012794;28;20213;-71
2021/03/18 08:44:31;;;;;;;9.65;5.78;;;18.80;44.50;;;;;;5020282;28;20192;-71
2021/03/18 08:46:58;;;;;;;6.50;5.32;;;20.10;42.80;;;;;;5014805;28;20224;-71
2021/03/18 08:49:37;;;;;;;7.20;5.20;;;20.80;38.70;;;;;;5015436;28;20213;-71
2021/03/18 08:52:08;;;;;;;7.93;5.95;;;21.00;39.60;;;;;;5018825;28;20262;-70
2021/03/18 08:54:37;;;;;;;6.97;5.35;;;21.00;35.30;;;;;;5021624;28;20185;-70
2021/03/18 08:57:08;;;;;;;6.55;5.82;;;21.20;37.50;;;;;;5013158;28;20185;-69
2021/03/18 08:59:37;;;;;;;5.38;4.88;;;21.60;34.80;;;;;;5013279;28;20240;-70
2021/03/18 09:02:03;;;;;;;5.30;4.72;;;22.10;36.20;;;;;;4991976;28;20205;-69
2021/03/18 09:04:39;;;;;;;6.25;4.88;;;;;;;;;;5018690;28;20220;-69
2021/03/18 09:07:05;;;;;;;5.40;4.90;;;;;;;;;;5018059;28;20187;-70
2021/03/18 09:09:32;;;;;;;5.47;4.55;;;;;;;;;;5018117;28;20188;-70
2021/03/18 09:11:59;;;;;;;9.65;5.72;;;;;;;;;;5020712;28;20565;-70
2021/03/18 09:14:25;;;;;;;10.45;5.47;;;;;;;;;;5009825;28;20841;-70
2021/03/18 09:16:51;;;;;;;8.25;5.25;;;22.40;34.50;;;;;;5021314;28;20185;-70
2021/03/18 09:19:17;;;;;;;6.10;4.97;;;;;;;;;;5013281;28;20552;-70
2021/03/18 09:21:44;;;;;;;4.80;4.30;;;22.10;33.30;;;;;;5013746;28;20199;-70
2021/03/18 09:24:10;;;;;;;6.65;4.22;;;;;;;;;;4996897;28;20722;-70
2021/03/18 09:26:37;;;;;;;6.63;5.20;;;;;;;;;;5009344;28;20269;-70
2021/03/18 09:29:03;;;;;;;7.13;5.03;;;;;;;;;;5016091;28;20188;-70
2021/03/18 09:31:29;;;;;;;6.00;5.28;;;;;;;;;;5019907;28;20804;-70
2021/03/18 09:33:57;;;;;;;6.47;5.88;;;;;;;;;;5010238;28;20205;-74
2021/03/18 09:36:25;;;;;;;9.07;7.72;;;;;;;;;;5010875;28;20208;-72
2021/03/18 09:39:11;;;;;;;8.32;6.00;;;;;;;;;;5010261;28;20189;-71
2021/03/18 09:41:38;;;;;;;7.60;6.80;;;;;;;;;;5010065;28;20211;-71
2021/03/18 09:44:10;;;;;;;8.57;7.72;;;;;;;;;;5000589;28;20180;-73
2021/03/18 09:46:37;;;;;;;8.00;6.70;;;;;;;;;;5010930;28;20184;-71
2021/03/18 09:49:04;;;;;;;7.75;6.97;;;;;;;;;;5012937;28;20564;-73
2021/03/18 09:51:34;;;;;;;8.35;7.18;;;;;;;;;;5009433;28;21038;-70
2021/03/18 09:54:02;;;;;;;10.18;6.68;;;;;;;;;;5006674;28;20192;-73
2021/03/18 09:56:28;;;;;;;13.17;11.77;;;;;;;;;;5009675;28;20215;-74
2021/03/18 09:58:55;;;;;;;8.77;7.50;;;;;;;;;;5014965;28;20181;-74
2021/03/18 10:01:20;;;;;;;10.63;7.00;;;;;;;;;;4992354;28;20213;-74
2021/03/18 10:03:54;;;;;;;13.40;7.70;;;;;;;;;;5015192;28;20685;-74
2021/03/18 10:06:28;;;;;;;9.40;7.47;;;;;;;;;;5004073;28;20248;-73
2021/03/18 10:08:54;;;;;;;8.07;6.23;;;;;;;;;;5004095;28;20595;-73
2021/03/18 10:11:22;;;;;;;7.87;6.53;;;;;;;;;;5011434;28;20299;-72
2021/03/18 10:13:48;;;;;;;10.77;7.00;;;;;;;;;;4988187;28;20221;-72
2021/03/18 10:16:14;;;;;;;13.90;7.13;;;;;;;;;;5008371;28;20264;-71
2021/03/18 10:18:40;;;;;;;7.97;7.10;;;;;;;;;;5014353;28;20188;-71
2021/03/18 10:21:06;;;;;;;12.83;6.90;;;;;;;;;;5015313;28;20663;-73
2021/03/18 10:23:34;;;;;;;7.23;6.37;;;;;;;;;;5010566;28;20189;-71
2021/03/18 10:26:00;;;;;;;8.00;7.20;;;;;;;;;;5007525;28;20206;-70
2021/03/18 10:28:31;;;;;;;7.00;6.30;;;;;;;;;;5011963;28;20187;-71
2021/03/18 10:30:57;;;;;;;8.30;6.63;;;;;;;;;;5004564;28;20234;-72
2021/03/18 10:33:24;;;;;;;7.37;6.00;;;;;;;;;;5008510;28;20180;-71
2021/03/18 10:35:53;;;;;;;7.87;6.60;;;;;;;;;;5010056;28;20573;-71
2021/03/18 10:38:25;;;;;;;8.40;7.10;;;;;;;;;;4993370;28;20181;-72
2021/03/18 10:40:51;;;;;;;11.40;6.93;;;;;;;;;;5006399;28;20185;-71
2021/03/18 10:43:37;;;;;;;8.47;6.63;;;;;;;;;;5014383;28;20183;-72
2021/03/18 10:46:08;;;;;;;8.37;6.87;;;;;;;;;;4988260;28;20185;-71
2021/03/18 10:48:36;;;;;;;9.77;6.77;;;;;;;;;;5011089;28;20193;-71
2021/03/18 10:51:23;;;;;;;9.37;6.73;;;;;;;;;;5007581;28;20283;-72
2021/03/18 10:53:49;;;;;;;7.20;6.00;;;;;;;;;;5010424;28;20259;-71
2021/03/18 10:56:17;;;;;;;8.40;6.73;;;;;;;;;;5009749;28;20224;-71
2021/03/18 10:58:44;;;;;;;7.40;5.83;;;;;;;;;;5007169;28;20556;-71
2021/03/18 11:01:11;;;;;;;13.27;5.90;;;;;;;;;;5006066;28;20204;-70
2021/03/18 11:03:39;;;;;;;7.00;6.23;;;;;;;;;;4989387;28;20268;-72
2021/03/18 11:06:14;;;;;;;7.40;5.80;;;;;;;;;;4990265;28;20726;-72
2021/03/18 11:08:41;;;;;;;9.53;5.77;;;;;;;;;;5014853;28;20202;-72
2021/03/18 11:11:12;;;;;;;7.03;6.33;;;;;;;;;;5014922;28;20211;-72
2021/03/18 11:13:42;;;;;;;8.47;6.23;;;;;;;;;;5002962;28;20207;-71
2021/03/18 11:16:08;;;;;;;6.37;5.63;;;;;;;;;;5002869;28;20247;-70
2021/03/18 11:18:36;;;;;;;9.77;5.80;;;;;;;;;;5009406;28;20564;-71
2021/03/18 11:21:03;;;;;;;7.23;5.67;;;;;;;;;;5004209;28;20330;-73
2021/03/18 11:23:37;;;;;;;7.60;5.57;;;;;;;;;;5006557;28;20246;-74
2021/03/18 11:26:05;;;;;;;6.33;5.70;;;;;;;;;;5002791;28;20188;-73
2021/03/18 11:28:32;;;;;;;7.43;5.03;;;;;;;;;;5009912;28;20204;-74
2021/03/18 11:30:59;;;;;;;5.40;4.90;;;;;;;;;;5011494;28;20196;-74
2021/03/18 11:33:32;;;;;;;7.23;4.40;;;;;;;;;;4992822;28;20200;-72
2021/03/18 11:35:59;;;;;;;7.03;5.30;;;;;;;;;;5003785;28;20213;-73
2021/03/18 11:38:25;;;;;;;6.63;5.13;;;;;;;;;;4989723;28;20245;-73
2021/03/18 11:40:51;;;;;;;7.67;5.23;;;;;;;;;;5005340;28;20798;-73
2021/03/18 11:43:17;;;;;;;6.68;5.72;;;;;;;;;;5011486;28;20679;-71
2021/03/18 11:45:43;;;;;;;5.22;4.60;;;;;;;;;;5000226;28;20197;-72
2021/03/18 11:48:10;;;;;;;5.00;4.25;;;;;;;;;;5005609;28;20193;-72
2021/03/18 11:50:37;;;;;;;6.47;4.68;;;22.50;32.30;;;;;;5005453;28;20252;-72
2021/03/18 11:53:03;;;;;;;8.20;3.70;;;;;;;;;;5015270;28;20209;-72
2021/03/18 11:55:30;;;;;;;4.97;3.80;;;19.00;41.80;;;;;;5014344;28;20200;-72
2021/03/18 11:57:59;;;;;;;7.70;4.28;;;22.20;39.00;;;;;;5005974;28;20189;-72
2021/03/18 12:00:30;;;;;;;4.75;3.00;;;22.90;38.30;;;;;;5009001;28;20173;-72
2021/03/18 12:02:57;;;;;;;5.68;3.60;;;;;;;;;;5004614;28;20195;-73
2021/03/18 12:05:24;;;;;;;6.45;3.38;;;;;;;;;;4997685;28;20189;-72
2021/03/18 12:07:50;;;;;;;4.90;3.08;;;;;;;;;;5012729;28;20212;-71
2021/03/18 12:10:16;;;;;;;4.53;3.33;;;;;;;;;;5013204;28;20215;-71
2021/03/18 12:12:42;;;;;;;4.00;3.05;;;;;;;;;;5009213;28;20271;-71
2021/03/18 12:15:10;;;;;;;4.30;3.20;;;;;;;;;;5013857;28;20240;-72
2021/03/18 12:17:36;;;;;;;6.13;3.38;;;;;;;;;;5010818;28;20268;-72
2021/03/18 12:20:04;;;;;;;5.15;3.70;;;;;;;;;;5014661;28;20196;-72
2021/03/18 12:22:30;;;;;;;5.72;3.75;;;;;;;;;;5012352;28;20258;-72
2021/03/18 12:24:56;;;;;;;6.45;3.88;;;;;;;;;;5012272;28;20184;-71
2021/03/18 12:27:22;;;;;;;5.15;3.75;;;;;;;;;;5019233;28;20712;-71
2021/03/18 12:29:47;;;;;;;4.53;4.13;;;;;;;;;;5004338;28;20181;-72
2021/03/18 12:32:13;;;;;;;4.18;3.55;;;;;;;;;;4977445;28;20208;-71
2021/03/18 12:34:39;;;;;;;4.70;4.07;;;;;;;;;;5007868;28;20268;-72
2021/03/18 12:37:06;;;;;;;5.55;4.20;;;;;;;;;;5009879;28;20188;-72
2021/03/18 12:39:32;;;;;;;8.07;4.32;;;;;;;;;;5006122;28;20208;-72
2021/03/18 12:41:58;;;;;;;7.28;3.95;;;;;;;;;;5001973;28;20201;-73
2021/03/18 12:44:24;;;;;;;6.95;3.50;;;;;;;;;;5010625;28;20173;-72
2021/03/18 12:46:50;;;;;;;6.80;3.63;;;;;;;;;;5008253;28;20722;-72
2021/03/18 12:49:16;;;;;;;4.88;2.80;;;;;;;;;;5009543;28;20672;-71
2021/03/18 12:51:42;;;;;;;3.08;2.55;;;;;;;;;;5012128;28;20223;-72
2021/03/18 12:54:08;;;;;;;4.60;2.60;;;24.30;33.20;;;;;;5015399;28;20671;-72
2021/03/18 12:56:34;;;;;;;4.97;2.90;;;;;;;;;;5010748;28;20208;-72
2021/03/18 12:59:00;;;;;;;6.18;3.08;;;;;;;;;;4994834;28;20264;-72
2021/03/18 13:01:26;;;;;;;3.10;2.80;;;;;;;;;;4998534;28;20205;-71
2021/03/18 13:03:52;;;;;;;4.00;2.92;;;;;;;;;;5007841;28;20239;-71
2021/03/18 13:06:18;;;;;;;3.47;2.90;;;;;;;;;;4994845;28;20606;-72
2021/03/18 13:08:44;;;;;;;5.13;3.80;;;;;;;;;;5007578;28;20267;-72
2021/03/18 13:11:10;;;;;;;8.20;3.72;;;;;;;;;;4991676;28;20221;-72
2021/03/18 13:13:36;;;;;;;7.50;4.47;;;;;;;;;;5008520;28;20232;-72
2021/03/18 13:16:03;;;;;;;4.40;4.00;;;;;;;;;;5014595;28;20304;-73
2021/03/18 13:18:29;;;;;;;5.60;3.97;;;;;;;;;;5008758;28;20659;-72
2021/03/18 13:20:55;;;;;;;6.10;4.25;;;;;;;;;;5013608;28;20185;-73
2021/03/18 13:23:21;;;;;;;6.38;5.13;;;;;;;;;;5011895;28;20629;-72
2021/03/18 13:25:48;;;;;;;9.02;5.38;;;;;;;;;;5010193;28;20185;-71
2021/03/18 13:28:14;;;;;;;6.95;5.15;;;;;;;;;;5008159;28;20670;-71
2021/03/18 13:30:41;;;;;;;7.95;5.18;;;;;;;;;;5007123;28;20260;-72
2021/03/18 13:33:07;;;;;;;6.55;5.18;;;;;;;;;;4980754;28;20296;-71
2021/03/18 13:35:34;;;;;;;6.88;4.63;;;;;;;;;;5001604;28;21046;-71
2021/03/18 13:38:00;;;;;;;7.65;5.38;;;;;;;;;;5021495;28;20173;-70
2021/03/18 13:40:28;;;;;;;5.35;4.30;;;;;;;;;;5007517;28;20207;-75
2021/03/18 13:42:54;;;;;;;5.85;5.25;;;;;;;;;;5013241;28;20197;-72
2021/03/18 13:45:21;;;;;;;7.93;4.72;;;;;;;;;;5003219;28;20294;-71
2021/03/18 13:47:47;;;;;;;4.97;4.35;;;;;;;;;;5013942;28;20196;-73
2021/03/18 13:50:15;;;;;;;5.10;4.60;;;;;;;;;;5004958;28;20193;-73
2021/03/18 13:52:41;;;;;;;6.25;4.60;;;;;;;;;;5002477;28;20231;-74
2021/03/18 13:55:07;;;;;;;5.68;4.55;;;;;;;;;;5008791;28;20576;-73
2021/03/18 13:57:33;;;;;;;5.90;4.13;;;;;;;;;;5007016;28;20254;-72
2021/03/18 13:59:59;;;;;;;6.18;4.00;;;;;;;;;;5009804;28;20781;-72
2021/03/18 14:02:25;;;;;;;4.85;3.85;;;;;;;;;;4991209;28;20209;-72
2021/03/18 14:04:51;;;;;;;4.20;3.78;;;;;;;;;;5007171;28;20350;-72
2021/03/18 14:07:17;;;;;;;4.93;3.20;;;;;;;;;;5008569;28;20184;-72
2021/03/18 14:09:44;;;;;;;4.45;3.92;;;;;;;;;;4986061;28;20687;-72
2021/03/18 14:12:10;;;;;;;3.50;3.20;;;;;;;;;;5007626;28;20278;-73
2021/03/18 14:14:36;;;;;;;5.95;3.35;;;;;;;;;;5008307;28;20224;-73
2021/03/18 14:17:03;;;;;;;3.22;2.92;;;;;;;;;;5004896;28;20221;-74
2021/03/18 14:19:29;;;;;;;5.47;3.42;;;;;;;;;;4998158;28;20178;-73
2021/03/18 14:21:55;;;;;;;4.40;3.55;;;;;;;;;;5010002;28;20288;-73
2021/03/18 14:24:22;;;;;;;3.33;2.90;;;;;;;;;;5007655;28;20188;-73
2021/03/18 14:26:48;;;;;;;5.20;3.53;;;;;;;;;;5006781;28;20185;-72
2021/03/18 14:29:14;;;;;;;4.82;3.20;;;;;;;;;;5002242;28;20191;-73
2021/03/18 14:31:40;;;;;;;4.20;3.42;;;;;;;;;;5012378;28;20214;-72
2021/03/18 14:34:06;;;;;;;6.75;3.30;;;;;;;;;;5009588;28;20663;-72
2021/03/18 14:36:32;;;;;;;3.38;2.63;;;;;;;;;;4990882;28;20217;-73
2021/03/18 14:38:58;;;;;;;5.70;2.88;;;;;;;;;;5012218;28;20200;-72